sensor_id;sensor_type;location;lat;lon;timestamp;temperature;humidity
582;DHT22;277;50.074;8.436;2023-12-28T00:00:04;7.20;99.90
582;DHT22;277;50.074;8.436;2023-12-28T00:02:33;6.80;99.90
582;DHT22;277;50.074;8.436;2023-12-28T00:05:01;6.60;99.90
582;DHT22;277;50.074;8.436;2023-12-28T00:07:29;6.50;99.90
582;DHT22;277;50.074;8.436;2023-12-28T00:09:56;6.30;99.90
582;DHT22;277;50.074;8.436;2023-12-28T00:12:24;6.10;99.90
582;DHT22;277;50.074;8.436;2023-12-28T00:14:52;6.20;99.90
582;DHT22;277;50.074;8.436;2023-12-28T00:17:21;6.20;99.90
582;DHT22;277;50.074;8.436;2023-12-28T00:19:49;6.20;99.90
582;DHT22;277;50.074;8.436;2023-12-28T00:22:17;6.10;99.90
582;DHT22;277;50.074;8.436;2023-12-28T00:24:45;6.10;99.90
582;DHT22;277;50.074;8.436;2023-12-28T00:27:13;6.10;99.90
582;DHT22;277;50.074;8.436;2023-12-28T00:29:41;6.00;99.90
582;DHT22;277;50.074;8.436;2023-12-28T00:32:09;6.00;99.90
582;DHT22;277;50.074;8.436;2023-12-28T00:34:38;6.00;99.90
582;DHT22;277;50.074;8.436;2023-12-28T00:37:06;6.10;99.90
582;DHT22;277;50.074;8.436;2023-12-28T00:39:34;6.20;99.90
582;DHT22;277;50.074;8.436;2023-12-28T00:42:03;6.20;99.90
582;DHT22;277;50.074;8.436;2023-12-28T00:44:31;6.40;99.90
582;DHT22;277;50.074;8.436;2023-12-28T00:46:58;6.40;99.90
582;DHT22;277;50.074;8.436;2023-12-28T00:49:26;6.40;99.90
582;DHT22;277;50.074;8.436;2023-12-28T00:51:55;6.50;99.90
582;DHT22;277;50.074;8.436;2023-12-28T00:54:23;6.50;99.90
582;DHT22;277;50.074;8.436;2023-12-28T00:56:51;6.70;99.90
582;DHT22;277;50.074;8.436;2023-12-28T00:59:19;6.70;99.90
582;DHT22;277;50.074;8.436;2023-12-28T01:01:46;6.90;99.90
582;DHT22;277;50.074;8.436;2023-12-28T01:04:14;6.80;99.90
582;DHT22;277;50.074;8.436;2023-12-28T01:06:43;6.90;99.90
582;DHT22;277;50.074;8.436;2023-12-28T01:09:12;6.80;99.90
582;DHT22;277;50.074;8.436;2023-12-28T01:11:40;6.80;99.90
582;DHT22;277;50.074;8.436;2023-12-28T01:14:08;6.90;99.90
582;DHT22;277;50.074;8.436;2023-12-28T01:16:35;7.00;99.90
582;DHT22;277;50.074;8.436;2023-12-28T01:19:05;7.00;99.90
582;DHT22;277;50.074;8.436;2023-12-28T01:21:33;7.00;99.90
582;DHT22;277;50.074;8.436;2023-12-28T01:24:01;7.00;99.90
582;DHT22;277;50.074;8.436;2023-12-28T01:26:30;7.00;99.90
582;DHT22;277;50.074;8.436;2023-12-28T01:28:58;7.00;99.90
582;DHT22;277;50.074;8.436;2023-12-28T01:31:29;7.00;99.90
582;DHT22;277;50.074;8.436;2023-12-28T01:33:57;6.90;99.90
582;DHT22;277;50.074;8.436;2023-12-28T01:36:25;6.80;99.90
582;DHT22;277;50.074;8.436;2023-12-28T01:38:56;6.80;99.90
582;DHT22;277;50.074;8.436;2023-12-28T01:41:23;6.90;99.90
582;DHT22;277;50.074;8.436;2023-12-28T01:43:52;6.90;99.90
582;DHT22;277;50.074;8.436;2023-12-28T01:46:21;7.00;99.90
582;DHT22;277;50.074;8.436;2023-12-28T01:48:49;7.00;99.90
582;DHT22;277;50.074;8.436;2023-12-28T01:51:17;7.10;99.90
582;DHT22;277;50.074;8.436;2023-12-28T01:53:47;7.10;99.90
582;DHT22;277;50.074;8.436;2023-12-28T01:56:15;7.10;99.90
582;DHT22;277;50.074;8.436;2023-12-28T01:58:44;7.20;99.90
582;DHT22;277;50.074;8.436;2023-12-28T02:01:15;7.30;99.90
582;DHT22;277;50.074;8.436;2023-12-28T02:03:43;7.40;99.90
582;DHT22;277;50.074;8.436;2023-12-28T02:06:11;7.30;99.90
582;DHT22;277;50.074;8.436;2023-12-28T02:08:42;7.30;99.90
582;DHT22;277;50.074;8.436;2023-12-28T02:11:10;7.30;99.90
582;DHT22;277;50.074;8.436;2023-12-28T02:13:39;7.30;99.90
582;DHT22;277;50.074;8.436;2023-12-28T02:16:10;7.30;99.90
582;DHT22;277;50.074;8.436;2023-12-28T02:18:44;7.20;99.90
582;DHT22;277;50.074;8.436;2023-12-28T02:21:13;7.10;99.90
582;DHT22;277;50.074;8.436;2023-12-28T02:23:45;7.20;99.90
582;DHT22;277;50.074;8.436;2023-12-28T02:26:14;7.40;99.90
582;DHT22;277;50.074;8.436;2023-12-28T02:28:42;7.40;99.90
582;DHT22;277;50.074;8.436;2023-12-28T02:31:11;7.30;99.90
582;DHT22;277;50.074;8.436;2023-12-28T02:33:43;7.10;99.90
582;DHT22;277;50.074;8.436;2023-12-28T02:36:15;7.10;99.90
582;DHT22;277;50.074;8.436;2023-12-28T02:38:44;7.10;99.90
582;DHT22;277;50.074;8.436;2023-12-28T02:41:14;7.10;99.90
582;DHT22;277;50.074;8.436;2023-12-28T02:43:43;7.10;99.90
582;DHT22;277;50.074;8.436;2023-12-28T02:46:11;7.10;99.90
582;DHT22;277;50.074;8.436;2023-12-28T02:48:38;7.20;99.90
582;DHT22;277;50.074;8.436;2023-12-28T02:51:06;7.20;99.90
582;DHT22;277;50.074;8.436;2023-12-28T02:53:34;7.20;99.90
582;DHT22;277;50.074;8.436;2023-12-28T02:56:02;7.30;99.90
582;DHT22;277;50.074;8.436;2023-12-28T02:58:31;7.40;99.90
582;DHT22;277;50.074;8.436;2023-12-28T03:00:59;7.40;99.90
582;DHT22;277;50.074;8.436;2023-12-28T03:03:27;7.40;99.90
582;DHT22;277;50.074;8.436;2023-12-28T03:05:55;7.30;99.90
582;DHT22;277;50.074;8.436;2023-12-28T03:08:22;7.30;99.90
582;DHT22;277;50.074;8.436;2023-12-28T03:10:50;7.30;99.90
582;DHT22;277;50.074;8.436;2023-12-28T03:13:19;7.30;99.90
582;DHT22;277;50.074;8.436;2023-12-28T03:15:48;7.40;99.90
582;DHT22;277;50.074;8.436;2023-12-28T03:18:16;7.50;99.90
582;DHT22;277;50.074;8.436;2023-12-28T03:20:44;7.50;99.90
582;DHT22;277;50.074;8.436;2023-12-28T03:23:12;7.50;99.90
582;DHT22;277;50.074;8.436;2023-12-28T03:25:40;7.40;99.90
582;DHT22;277;50.074;8.436;2023-12-28T03:28:07;7.50;99.90
582;DHT22;277;50.074;8.436;2023-12-28T03:30:35;7.50;99.90
582;DHT22;277;50.074;8.436;2023-12-28T03:33:04;7.40;99.90
582;DHT22;277;50.074;8.436;2023-12-28T03:35:32;7.50;99.90
582;DHT22;277;50.074;8.436;2023-12-28T03:38:00;7.60;99.90
582;DHT22;277;50.074;8.436;2023-12-28T03:40:28;7.60;99.90
582;DHT22;277;50.074;8.436;2023-12-28T03:42:55;7.50;99.90
582;DHT22;277;50.074;8.436;2023-12-28T03:45:23;7.50;99.90
582;DHT22;277;50.074;8.436;2023-12-28T03:47:51;7.40;99.90
582;DHT22;277;50.074;8.436;2023-12-28T03:50:20;7.40;99.90
582;DHT22;277;50.074;8.436;2023-12-28T03:52:50;7.40;99.90
582;DHT22;277;50.074;8.436;2023-12-28T03:55:18;7.50;99.90
582;DHT22;277;50.074;8.436;2023-12-28T03:57:46;7.50;99.90
582;DHT22;277;50.074;8.436;2023-12-28T04:00:14;7.50;99.90
582;DHT22;277;50.074;8.436;2023-12-28T04:02:43;7.50;99.90
582;DHT22;277;50.074;8.436;2023-12-28T04:05:11;7.50;99.90
582;DHT22;277;50.074;8.436;2023-12-28T04:07:40;7.60;99.90
582;DHT22;277;50.074;8.436;2023-12-28T04:10:09;7.60;99.90
582;DHT22;277;50.074;8.436;2023-12-28T04:12:37;7.60;99.90
582;DHT22;277;50.074;8.436;2023-12-28T04:15:05;7.70;99.90
582;DHT22;277;50.074;8.436;2023-12-28T04:17:33;7.70;99.90
582;DHT22;277;50.074;8.436;2023-12-28T04:20:01;7.70;99.90
582;DHT22;277;50.074;8.436;2023-12-28T04:22:29;7.70;99.90
582;DHT22;277;50.074;8.436;2023-12-28T04:24:58;7.60;99.90
582;DHT22;277;50.074;8.436;2023-12-28T04:27:26;7.70;99.90
582;DHT22;277;50.074;8.436;2023-12-28T04:29:54;7.80;99.90
582;DHT22;277;50.074;8.436;2023-12-28T04:32:22;7.80;99.90
582;DHT22;277;50.074;8.436;2023-12-28T04:34:50;7.80;99.90
582;DHT22;277;50.074;8.436;2023-12-28T04:37:18;7.80;99.90
582;DHT22;277;50.074;8.436;2023-12-28T04:39:46;7.80;99.90
582;DHT22;277;50.074;8.436;2023-12-28T04:42:15;7.80;99.90
582;DHT22;277;50.074;8.436;2023-12-28T04:44:43;7.80;99.90
582;DHT22;277;50.074;8.436;2023-12-28T04:47:10;8.00;99.90
582;DHT22;277;50.074;8.436;2023-12-28T04:49:38;8.00;99.90
582;DHT22;277;50.074;8.436;2023-12-28T04:52:06;8.00;99.90
582;DHT22;277;50.074;8.436;2023-12-28T04:54:34;8.00;99.90
582;DHT22;277;50.074;8.436;2023-12-28T04:57:02;8.00;99.90
582;DHT22;277;50.074;8.436;2023-12-28T04:59:31;8.10;99.90
582;DHT22;277;50.074;8.436;2023-12-28T05:01:59;8.10;99.90
582;DHT22;277;50.074;8.436;2023-12-28T05:04:27;8.10;99.90
582;DHT22;277;50.074;8.436;2023-12-28T05:06:55;8.10;99.90
582;DHT22;277;50.074;8.436;2023-12-28T05:09:22;8.10;99.90
582;DHT22;277;50.074;8.436;2023-12-28T05:11:50;8.10;99.90
582;DHT22;277;50.074;8.436;2023-12-28T05:14:18;8.20;99.90
582;DHT22;277;50.074;8.436;2023-12-28T05:16:47;8.20;99.90
582;DHT22;277;50.074;8.436;2023-12-28T05:19:15;8.20;99.90
582;DHT22;277;50.074;8.436;2023-12-28T05:21:43;8.20;99.90
582;DHT22;277;50.074;8.436;2023-12-28T05:24:11;8.20;99.90
582;DHT22;277;50.074;8.436;2023-12-28T05:26:38;8.20;99.90
582;DHT22;277;50.074;8.436;2023-12-28T05:29:06;8.30;99.90
582;DHT22;277;50.074;8.436;2023-12-28T05:31:34;8.20;99.90
582;DHT22;277;50.074;8.436;2023-12-28T05:34:04;8.20;99.90
582;DHT22;277;50.074;8.436;2023-12-28T05:36:32;8.20;99.90
582;DHT22;277;50.074;8.436;2023-12-28T05:39:00;8.20;99.90
582;DHT22;277;50.074;8.436;2023-12-28T05:41:28;8.10;99.90
582;DHT22;277;50.074;8.436;2023-12-28T05:43:56;8.10;99.90
582;DHT22;277;50.074;8.436;2023-12-28T05:46:24;8.20;99.90
582;DHT22;277;50.074;8.436;2023-12-28T05:48:51;8.10;99.90
582;DHT22;277;50.074;8.436;2023-12-28T05:51:21;8.10;99.90
582;DHT22;277;50.074;8.436;2023-12-28T05:53:51;8.10;99.90
582;DHT22;277;50.074;8.436;2023-12-28T05:56:19;8.00;99.90
582;DHT22;277;50.074;8.436;2023-12-28T05:58:47;8.10;99.90
582;DHT22;277;50.074;8.436;2023-12-28T06:01:14;8.10;99.90
582;DHT22;277;50.074;8.436;2023-12-28T06:03:42;8.00;99.90
582;DHT22;277;50.074;8.436;2023-12-28T06:06:10;8.10;99.90
582;DHT22;277;50.074;8.436;2023-12-28T06:08:39;8.00;99.90
582;DHT22;277;50.074;8.436;2023-12-28T06:11:07;8.00;99.90
582;DHT22;277;50.074;8.436;2023-12-28T06:13:35;8.00;99.90
582;DHT22;277;50.074;8.436;2023-12-28T06:16:03;8.00;99.90
582;DHT22;277;50.074;8.436;2023-12-28T06:18:31;7.90;99.90
582;DHT22;277;50.074;8.436;2023-12-28T06:20:59;8.00;99.90
582;DHT22;277;50.074;8.436;2023-12-28T06:23:27;7.90;99.90
582;DHT22;277;50.074;8.436;2023-12-28T06:25:56;7.90;99.90
582;DHT22;277;50.074;8.436;2023-12-28T06:28:24;7.90;99.90
582;DHT22;277;50.074;8.436;2023-12-28T06:30:51;7.90;99.90
582;DHT22;277;50.074;8.436;2023-12-28T06:33:20;7.90;99.90
582;DHT22;277;50.074;8.436;2023-12-28T06:35:48;8.00;99.90
582;DHT22;277;50.074;8.436;2023-12-28T06:38:15;7.90;99.90
582;DHT22;277;50.074;8.436;2023-12-28T06:40:43;8.00;99.90
582;DHT22;277;50.074;8.436;2023-12-28T06:43:12;8.00;99.90
582;DHT22;277;50.074;8.436;2023-12-28T06:45:40;7.90;99.90
582;DHT22;277;50.074;8.436;2023-12-28T06:48:08;8.00;99.90
582;DHT22;277;50.074;8.436;2023-12-28T06:50:35;7.90;99.90
582;DHT22;277;50.074;8.436;2023-12-28T06:53:03;7.90;99.90
582;DHT22;277;50.074;8.436;2023-12-28T06:55:31;7.90;99.90
582;DHT22;277;50.074;8.436;2023-12-28T06:57:59;8.00;99.90
582;DHT22;277;50.074;8.436;2023-12-28T07:00:28;8.00;99.90
582;DHT22;277;50.074;8.436;2023-12-28T07:02:57;7.90;99.90
582;DHT22;277;50.074;8.436;2023-12-28T07:05:25;8.10;99.90
582;DHT22;277;50.074;8.436;2023-12-28T07:07:53;8.00;99.90
582;DHT22;277;50.074;8.436;2023-12-28T07:10:21;8.00;99.90
582;DHT22;277;50.074;8.436;2023-12-28T07:12:48;7.90;99.90
582;DHT22;277;50.074;8.436;2023-12-28T07:15:16;7.90;99.90
582;DHT22;277;50.074;8.436;2023-12-28T07:17:46;7.90;99.90
582;DHT22;277;50.074;8.436;2023-12-28T07:20:14;7.90;99.90
582;DHT22;277;50.074;8.436;2023-12-28T07:22:42;7.90;99.90
582;DHT22;277;50.074;8.436;2023-12-28T07:25:20;7.90;99.90
582;DHT22;277;50.074;8.436;2023-12-28T07:27:48;7.90;99.90
582;DHT22;277;50.074;8.436;2023-12-28T07:30:16;7.90;99.90
582;DHT22;277;50.074;8.436;2023-12-28T07:32:45;7.90;99.90
582;DHT22;277;50.074;8.436;2023-12-28T07:35:13;7.90;99.90
582;DHT22;277;50.074;8.436;2023-12-28T07:37:41;7.90;99.90
582;DHT22;277;50.074;8.436;2023-12-28T07:40:09;8.00;99.90
582;DHT22;277;50.074;8.436;2023-12-28T07:42:37;8.00;99.90
582;DHT22;277;50.074;8.436;2023-12-28T07:45:05;8.00;99.90
582;DHT22;277;50.074;8.436;2023-12-28T07:47:33;8.00;99.90
582;DHT22;277;50.074;8.436;2023-12-28T07:50:03;8.00;99.90
582;DHT22;277;50.074;8.436;2023-12-28T07:52:31;8.00;99.90
582;DHT22;277;50.074;8.436;2023-12-28T07:54:59;8.00;99.90
582;DHT22;277;50.074;8.436;2023-12-28T07:57:27;8.10;99.90
582;DHT22;277;50.074;8.436;2023-12-28T07:59:54;8.10;99.90
582;DHT22;277;50.074;8.436;2023-12-28T08:02:22;8.10;99.90
582;DHT22;277;50.074;8.436;2023-12-28T08:04:50;8.10;99.90
582;DHT22;277;50.074;8.436;2023-12-28T08:07:19;8.10;99.90
582;DHT22;277;50.074;8.436;2023-12-28T08:09:47;8.20;99.90
582;DHT22;277;50.074;8.436;2023-12-28T08:12:15;8.20;99.90
582;DHT22;277;50.074;8.436;2023-12-28T08:14:43;8.20;99.90
582;DHT22;277;50.074;8.436;2023-12-28T08:17:11;8.20;99.90
582;DHT22;277;50.074;8.436;2023-12-28T08:19:39;8.20;99.90
582;DHT22;277;50.074;8.436;2023-12-28T08:22:07;8.20;99.90
582;DHT22;277;50.074;8.436;2023-12-28T08:24:36;8.20;99.90
582;DHT22;277;50.074;8.436;2023-12-28T08:27:04;8.20;99.90
582;DHT22;277;50.074;8.436;2023-12-28T08:29:32;8.20;99.90
582;DHT22;277;50.074;8.436;2023-12-28T08:32:00;8.20;99.90
582;DHT22;277;50.074;8.436;2023-12-28T08:34:27;8.30;99.90
582;DHT22;277;50.074;8.436;2023-12-28T08:36:55;8.30;99.90
582;DHT22;277;50.074;8.436;2023-12-28T08:39:23;8.30;99.90
582;DHT22;277;50.074;8.436;2023-12-28T08:41:52;8.30;99.90
582;DHT22;277;50.074;8.436;2023-12-28T08:44:20;8.30;99.90
582;DHT22;277;50.074;8.436;2023-12-28T08:46:48;8.30;99.90
582;DHT22;277;50.074;8.436;2023-12-28T08:49:16;8.30;99.90
582;DHT22;277;50.074;8.436;2023-12-28T08:51:44;8.30;99.90
582;DHT22;277;50.074;8.436;2023-12-28T08:54:12;8.30;99.90
582;DHT22;277;50.074;8.436;2023-12-28T08:56:40;8.40;99.90
582;DHT22;277;50.074;8.436;2023-12-28T08:59:10;8.30;99.90
582;DHT22;277;50.074;8.436;2023-12-28T09:01:37;8.40;99.90
582;DHT22;277;50.074;8.436;2023-12-28T09:04:05;8.40;99.90
582;DHT22;277;50.074;8.436;2023-12-28T09:06:33;8.50;99.90
582;DHT22;277;50.074;8.436;2023-12-28T09:09:02;8.50;99.90
582;DHT22;277;50.074;8.436;2023-12-28T09:11:30;8.60;99.90
582;DHT22;277;50.074;8.436;2023-12-28T09:13:58;8.70;99.90
582;DHT22;277;50.074;8.436;2023-12-28T09:16:27;8.90;99.90
582;DHT22;277;50.074;8.436;2023-12-28T09:18:56;9.00;99.90
582;DHT22;277;50.074;8.436;2023-12-28T09:21:24;9.10;99.90
582;DHT22;277;50.074;8.436;2023-12-28T09:23:53;9.20;99.90
582;DHT22;277;50.074;8.436;2023-12-28T09:26:20;9.40;99.90
582;DHT22;277;50.074;8.436;2023-12-28T09:28:48;9.70;99.90
582;DHT22;277;50.074;8.436;2023-12-28T09:31:16;9.90;99.90
582;DHT22;277;50.074;8.436;2023-12-28T09:33:45;10.10;99.90
582;DHT22;277;50.074;8.436;2023-12-28T09:36:13;10.10;99.90
582;DHT22;277;50.074;8.436;2023-12-28T09:38:42;10.10;99.90
582;DHT22;277;50.074;8.436;2023-12-28T09:41:11;10.20;99.90
582;DHT22;277;50.074;8.436;2023-12-28T09:43:40;10.10;99.90
582;DHT22;277;50.074;8.436;2023-12-28T09:46:09;9.90;99.90
582;DHT22;277;50.074;8.436;2023-12-28T09:48:38;9.90;99.90
582;DHT22;277;50.074;8.436;2023-12-28T09:51:08;9.80;99.90
582;DHT22;277;50.074;8.436;2023-12-28T09:53:40;9.80;99.90
582;DHT22;277;50.074;8.436;2023-12-28T09:56:10;9.70;99.90
582;DHT22;277;50.074;8.436;2023-12-28T09:58:39;9.70;99.90
582;DHT22;277;50.074;8.436;2023-12-28T10:01:06;9.70;99.90
582;DHT22;277;50.074;8.436;2023-12-28T10:03:35;9.70;99.90
582;DHT22;277;50.074;8.436;2023-12-28T10:06:03;9.80;99.90
582;DHT22;277;50.074;8.436;2023-12-28T10:08:32;10.00;99.90
582;DHT22;277;50.074;8.436;2023-12-28T10:11:02;10.30;99.90
582;DHT22;277;50.074;8.436;2023-12-28T10:13:32;10.40;99.90
582;DHT22;277;50.074;8.436;2023-12-28T10:16:02;10.60;99.90
582;DHT22;277;50.074;8.436;2023-12-28T10:18:31;10.80;99.90
582;DHT22;277;50.074;8.436;2023-12-28T10:20:59;11.10;99.90
582;DHT22;277;50.074;8.436;2023-12-28T10:23:28;11.40;99.90
582;DHT22;277;50.074;8.436;2023-12-28T10:25:58;11.80;99.90
582;DHT22;277;50.074;8.436;2023-12-28T10:28:30;11.90;99.90
582;DHT22;277;50.074;8.436;2023-12-28T10:30:58;12.20;99.90
582;DHT22;277;50.074;8.436;2023-12-28T10:33:33;12.20;99.90
582;DHT22;277;50.074;8.436;2023-12-28T10:36:02;12.40;99.90
582;DHT22;277;50.074;8.436;2023-12-28T10:38:34;12.40;99.90
582;DHT22;277;50.074;8.436;2023-12-28T10:41:04;12.40;99.90
582;DHT22;277;50.074;8.436;2023-12-28T10:43:35;12.40;99.90
582;DHT22;277;50.074;8.436;2023-12-28T10:46:06;12.20;99.90
582;DHT22;277;50.074;8.436;2023-12-28T10:48:36;12.10;99.90
582;DHT22;277;50.074;8.436;2023-12-28T10:51:06;12.20;99.90
582;DHT22;277;50.074;8.436;2023-12-28T10:53:37;12.20;99.90
582;DHT22;277;50.074;8.436;2023-12-28T10:56:12;12.30;99.90
582;DHT22;277;50.074;8.436;2023-12-28T10:58:45;12.20;99.90
582;DHT22;277;50.074;8.436;2023-12-28T11:01:14;12.20;99.90
582;DHT22;277;50.074;8.436;2023-12-28T11:03:43;12.30;99.90
582;DHT22;277;50.074;8.436;2023-12-28T11:06:12;12.10;99.90
582;DHT22;277;50.074;8.436;2023-12-28T11:08:40;12.10;99.90
582;DHT22;277;50.074;8.436;2023-12-28T11:11:10;12.30;99.90
582;DHT22;277;50.074;8.436;2023-12-28T11:13:39;12.20;99.90
582;DHT22;277;50.074;8.436;2023-12-28T11:16:07;12.30;99.90
582;DHT22;277;50.074;8.436;2023-12-28T11:18:35;12.30;99.90
582;DHT22;277;50.074;8.436;2023-12-28T11:21:03;12.60;99.90
582;DHT22;277;50.074;8.436;2023-12-28T11:23:33;12.90;99.90
582;DHT22;277;50.074;8.436;2023-12-28T11:26:01;12.90;99.90
582;DHT22;277;50.074;8.436;2023-12-28T11:28:31;12.90;99.90
582;DHT22;277;50.074;8.436;2023-12-28T11:30:58;12.90;99.90
582;DHT22;277;50.074;8.436;2023-12-28T11:33:30;13.00;99.90
582;DHT22;277;50.074;8.436;2023-12-28T11:35:58;13.20;99.90
582;DHT22;277;50.074;8.436;2023-12-28T11:38:26;13.40;99.90
582;DHT22;277;50.074;8.436;2023-12-28T11:40:54;13.30;99.90
582;DHT22;277;50.074;8.436;2023-12-28T11:43:23;13.50;99.90
582;DHT22;277;50.074;8.436;2023-12-28T11:46:01;13.80;99.90
582;DHT22;277;50.074;8.436;2023-12-28T11:48:31;14.10;99.90
582;DHT22;277;50.074;8.436;2023-12-28T11:51:00;14.20;99.90
582;DHT22;277;50.074;8.436;2023-12-28T11:53:28;14.20;99.90
582;DHT22;277;50.074;8.436;2023-12-28T11:56:02;14.10;99.90
582;DHT22;277;50.074;8.436;2023-12-28T11:58:30;14.00;99.90
582;DHT22;277;50.074;8.436;2023-12-28T12:01:00;13.90;99.90
582;DHT22;277;50.074;8.436;2023-12-28T12:03:28;13.90;99.90
582;DHT22;277;50.074;8.436;2023-12-28T12:05:57;13.90;99.90
582;DHT22;277;50.074;8.436;2023-12-28T12:08:24;14.00;99.90
582;DHT22;277;50.074;8.436;2023-12-28T12:10:59;14.00;99.90
582;DHT22;277;50.074;8.436;2023-12-28T12:13:27;13.90;99.90
582;DHT22;277;50.074;8.436;2023-12-28T12:15:56;13.90;99.90
582;DHT22;277;50.074;8.436;2023-12-28T12:18:25;13.70;99.90
582;DHT22;277;50.074;8.436;2023-12-28T12:20:53;13.40;99.90
582;DHT22;277;50.074;8.436;2023-12-28T12:23:21;13.20;99.90
582;DHT22;277;50.074;8.436;2023-12-28T12:25:49;13.10;99.90
582;DHT22;277;50.074;8.436;2023-12-28T12:28:18;12.90;99.90
582;DHT22;277;50.074;8.436;2023-12-28T12:30:50;12.70;99.90
582;DHT22;277;50.074;8.436;2023-12-28T12:33:18;12.40;99.90
582;DHT22;277;50.074;8.436;2023-12-28T12:35:48;12.30;99.90
582;DHT22;277;50.074;8.436;2023-12-28T12:38:16;12.20;99.90
582;DHT22;277;50.074;8.436;2023-12-28T12:40:44;12.20;99.90
582;DHT22;277;50.074;8.436;2023-12-28T12:43:12;12.10;99.90
582;DHT22;277;50.074;8.436;2023-12-28T12:45:39;12.00;99.90
582;DHT22;277;50.074;8.436;2023-12-28T12:48:07;11.90;99.90
582;DHT22;277;50.074;8.436;2023-12-28T12:50:35;11.90;99.90
582;DHT22;277;50.074;8.436;2023-12-28T12:53:05;11.90;99.90
582;DHT22;277;50.074;8.436;2023-12-28T12:55:33;11.90;99.90
582;DHT22;277;50.074;8.436;2023-12-28T12:58:01;11.80;99.90
582;DHT22;277;50.074;8.436;2023-12-28T13:00:30;11.70;99.90
582;DHT22;277;50.074;8.436;2023-12-28T13:02:58;11.60;99.90
582;DHT22;277;50.074;8.436;2023-12-28T13:05:27;11.70;99.90
582;DHT22;277;50.074;8.436;2023-12-28T13:07:55;11.60;99.90
582;DHT22;277;50.074;8.436;2023-12-28T13:10:24;11.60;99.90
582;DHT22;277;50.074;8.436;2023-12-28T13:12:52;11.60;99.90
582;DHT22;277;50.074;8.436;2023-12-28T13:15:20;11.50;99.90
582;DHT22;277;50.074;8.436;2023-12-28T13:17:48;11.40;99.90
582;DHT22;277;50.074;8.436;2023-12-28T13:20:16;11.30;99.90
582;DHT22;277;50.074;8.436;2023-12-28T13:22:43;11.30;99.90
582;DHT22;277;50.074;8.436;2023-12-28T13:25:11;11.20;99.90
582;DHT22;277;50.074;8.436;2023-12-28T13:27:41;11.20;99.90
582;DHT22;277;50.074;8.436;2023-12-28T13:30:09;11.20;99.90
582;DHT22;277;50.074;8.436;2023-12-28T13:32:38;11.10;99.90
582;DHT22;277;50.074;8.436;2023-12-28T13:35:06;11.10;99.90
582;DHT22;277;50.074;8.436;2023-12-28T13:37:34;11.10;99.90
582;DHT22;277;50.074;8.436;2023-12-28T13:40:02;11.20;99.90
582;DHT22;277;50.074;8.436;2023-12-28T13:42:31;11.20;99.90
582;DHT22;277;50.074;8.436;2023-12-28T13:45:00;11.20;99.90
582;DHT22;277;50.074;8.436;2023-12-28T13:47:29;11.20;99.90
582;DHT22;277;50.074;8.436;2023-12-28T13:49:57;11.20;99.90
582;DHT22;277;50.074;8.436;2023-12-28T13:52:24;11.30;99.90
582;DHT22;277;50.074;8.436;2023-12-28T13:54:52;11.20;99.90
582;DHT22;277;50.074;8.436;2023-12-28T13:57:20;11.20;99.90
582;DHT22;277;50.074;8.436;2023-12-28T13:59:48;11.20;99.90
582;DHT22;277;50.074;8.436;2023-12-28T14:02:17;11.10;99.90
582;DHT22;277;50.074;8.436;2023-12-28T14:04:44;11.10;99.90
582;DHT22;277;50.074;8.436;2023-12-28T14:07:13;11.10;99.90
582;DHT22;277;50.074;8.436;2023-12-28T14:09:41;11.10;99.90
582;DHT22;277;50.074;8.436;2023-12-28T14:12:08;11.10;99.90
582;DHT22;277;50.074;8.436;2023-12-28T14:14:36;11.10;99.90
582;DHT22;277;50.074;8.436;2023-12-28T14:17:04;11.00;99.90
582;DHT22;277;50.074;8.436;2023-12-28T14:19:33;10.90;99.90
582;DHT22;277;50.074;8.436;2023-12-28T14:22:01;10.80;99.90
582;DHT22;277;50.074;8.436;2023-12-28T14:24:29;10.80;99.90
582;DHT22;277;50.074;8.436;2023-12-28T14:26:57;10.70;99.90
582;DHT22;277;50.074;8.436;2023-12-28T14:29:24;10.70;99.90
582;DHT22;277;50.074;8.436;2023-12-28T14:31:53;10.70;99.90
582;DHT22;277;50.074;8.436;2023-12-28T14:34:21;10.70;99.90
582;DHT22;277;50.074;8.436;2023-12-28T14:36:51;10.60;99.90
582;DHT22;277;50.074;8.436;2023-12-28T14:39:19;10.70;99.90
582;DHT22;277;50.074;8.436;2023-12-28T14:41:47;10.90;99.90
582;DHT22;277;50.074;8.436;2023-12-28T14:44:15;11.10;99.90
582;DHT22;277;50.074;8.436;2023-12-28T14:46:43;11.20;99.90
582;DHT22;277;50.074;8.436;2023-12-28T14:49:11;11.20;99.90
582;DHT22;277;50.074;8.436;2023-12-28T14:51:39;11.10;99.90
582;DHT22;277;50.074;8.436;2023-12-28T14:54:08;11.30;99.90
582;DHT22;277;50.074;8.436;2023-12-28T14:56:36;11.20;99.90
582;DHT22;277;50.074;8.436;2023-12-28T14:59:14;11.00;99.90
582;DHT22;277;50.074;8.436;2023-12-28T15:01:42;10.80;99.90
582;DHT22;277;50.074;8.436;2023-12-28T15:04:10;10.80;99.90
582;DHT22;277;50.074;8.436;2023-12-28T15:06:38;10.70;99.90
582;DHT22;277;50.074;8.436;2023-12-28T15:09:06;10.60;99.90
582;DHT22;277;50.074;8.436;2023-12-28T15:11:37;10.40;99.90
582;DHT22;277;50.074;8.436;2023-12-28T15:14:14;10.40;99.90
582;DHT22;277;50.074;8.436;2023-12-28T15:16:43;10.30;99.90
582;DHT22;277;50.074;8.436;2023-12-28T15:19:11;10.20;99.90
582;DHT22;277;50.074;8.436;2023-12-28T15:21:39;10.20;99.90
582;DHT22;277;50.074;8.436;2023-12-28T15:24:08;10.00;99.90
582;DHT22;277;50.074;8.436;2023-12-28T15:26:37;10.00;99.90
582;DHT22;277;50.074;8.436;2023-12-28T15:29:05;9.90;99.90
582;DHT22;277;50.074;8.436;2023-12-28T15:31:33;9.90;99.90
582;DHT22;277;50.074;8.436;2023-12-28T15:34:01;9.90;99.90
582;DHT22;277;50.074;8.436;2023-12-28T15:36:29;9.80;99.90
582;DHT22;277;50.074;8.436;2023-12-28T15:38:57;9.80;99.90
582;DHT22;277;50.074;8.436;2023-12-28T15:41:25;9.80;99.90
582;DHT22;277;50.074;8.436;2023-12-28T15:43:54;9.80;99.90
582;DHT22;277;50.074;8.436;2023-12-28T15:46:21;9.80;99.90
582;DHT22;277;50.074;8.436;2023-12-28T15:48:49;9.80;99.90
582;DHT22;277;50.074;8.436;2023-12-28T15:51:17;9.80;99.90
582;DHT22;277;50.074;8.436;2023-12-28T15:53:45;9.70;99.90
582;DHT22;277;50.074;8.436;2023-12-28T15:56:12;9.60;99.90
582;DHT22;277;50.074;8.436;2023-12-28T15:58:45;9.50;99.90
582;DHT22;277;50.074;8.436;2023-12-28T16:01:14;9.40;99.90
582;DHT22;277;50.074;8.436;2023-12-28T16:03:44;9.40;99.90
582;DHT22;277;50.074;8.436;2023-12-28T16:06:11;9.40;99.90
582;DHT22;277;50.074;8.436;2023-12-28T16:08:39;9.30;99.90
582;DHT22;277;50.074;8.436;2023-12-28T16:11:07;9.30;99.90
582;DHT22;277;50.074;8.436;2023-12-28T16:13:35;9.20;99.90
582;DHT22;277;50.074;8.436;2023-12-28T16:16:04;9.10;99.90
582;DHT22;277;50.074;8.436;2023-12-28T16:18:39;9.10;99.90
582;DHT22;277;50.074;8.436;2023-12-28T16:21:07;9.10;99.90
582;DHT22;277;50.074;8.436;2023-12-28T16:23:36;9.10;99.90
582;DHT22;277;50.074;8.436;2023-12-28T16:26:04;9.10;99.90
582;DHT22;277;50.074;8.436;2023-12-28T16:28:33;9.10;99.90
582;DHT22;277;50.074;8.436;2023-12-28T16:31:02;9.10;99.90
582;DHT22;277;50.074;8.436;2023-12-28T16:33:31;9.10;99.90
582;DHT22;277;50.074;8.436;2023-12-28T16:36:00;9.00;99.90
582;DHT22;277;50.074;8.436;2023-12-28T16:38:28;9.00;99.90
582;DHT22;277;50.074;8.436;2023-12-28T16:40:56;9.00;99.90
582;DHT22;277;50.074;8.436;2023-12-28T16:43:25;9.00;99.90
582;DHT22;277;50.074;8.436;2023-12-28T16:45:56;8.90;99.90
582;DHT22;277;50.074;8.436;2023-12-28T16:48:24;8.90;99.90
582;DHT22;277;50.074;8.436;2023-12-28T16:50:52;8.90;99.90
582;DHT22;277;50.074;8.436;2023-12-28T16:53:22;8.90;99.90